Time;durP1;ratioP1;P1;durP2;ratioP2;P2;SDS_P1;SDS_P2;PMS_P1;PMS_P2;Temp;Humidity;BMP_temperature;BMP_pressure;BME280_temperature;BME280_humidity;BME280_pressure;Samples;Min_cycle;Max_cycle;Signal;HPM_P1;HPM_P2
2022/09/09 00:02:20;;;;;;;15.65;3.97;;;16.00;99.90;;;;;;5058757;28;20048;-66
2022/09/09 00:04:59;;;;;;;14.43;3.03;;;16.00;99.90;;;;;;5062642;28;20127;-65
2022/09/09 00:07:41;;;;;;;12.40;3.00;;;16.00;99.90;;;;;;5053756;28;20045;-66
2022/09/09 00:10:26;;;;;;;9.40;3.15;;;16.00;99.90;;;;;;5051785;28;20045;-66
2022/09/09 00:12:57;;;;;;;7.60;2.25;;;16.00;99.90;;;;;;5047899;28;20045;-66
2022/09/09 00:15:47;;;;;;;7.35;2.55;;;16.00;99.90;;;;;;5048394;28;20041;-66
2022/09/09 00:18:17;;;;;;;8.50;2.65;;;16.00;99.90;;;;;;5047857;28;20045;-64
2022/09/09 00:21:08;;;;;;;11.07;2.65;;;16.00;99.90;;;;;;5048737;28;20049;-64
2022/09/09 00:23:39;;;;;;;9.32;3.35;;;16.00;99.90;;;;;;5021295;28;20516;-67
2022/09/09 00:26:20;;;;;;;10.35;2.53;;;16.00;99.90;;;;;;5044459;28;20049;-67
2022/09/09 00:28:59;;;;;;;8.07;2.10;;;16.00;99.90;;;;;;5028928;28;20059;-65
2022/09/09 00:31:28;;;;;;;10.63;2.80;;;16.00;99.90;;;;;;5043774;28;20132;-63
2022/09/09 00:33:58;;;;;;;10.07;2.17;;;16.00;99.90;;;;;;4686974;27;10000514;-64
2022/09/09 00:36:25;;;;;;;10.70;2.72;;;16.00;99.90;;;;;;5044729;28;20131;-64
2022/09/09 00:38:55;;;;;;;12.02;2.88;;;16.00;99.90;;;;;;5047880;28;20049;-64
2022/09/09 00:41:37;;;;;;;17.30;4.13;;;15.90;99.90;;;;;;5046659;28;20056;-64
2022/09/09 00:44:19;;;;;;;9.27;2.08;;;15.90;99.90;;;;;;5048410;28;20132;-65
2022/09/09 00:47:13;;;;;;;13.32;2.95;;;16.00;99.90;;;;;;5047465;28;20056;-65
2022/09/09 00:50:11;;;;;;;14.52;3.78;;;16.00;99.90;;;;;;5027023;28;20068;-63
2022/09/09 00:52:47;;;;;;;16.90;3.78;;;16.00;99.90;;;;;;5047928;28;20037;-65
2022/09/09 00:55:28;;;;;;;9.07;2.13;;;16.00;99.90;;;;;;5048255;28;20041;-66
2022/09/09 00:57:55;;;;;;;12.75;3.33;;;16.00;99.90;;;;;;5046518;28;20067;-65
2022/09/09 01:00:31;;;;;;;12.02;2.75;;;16.00;99.90;;;;;;5061357;28;20055;-63
2022/09/09 01:03:29;;;;;;;11.65;3.08;;;16.00;99.90;;;;;;5047127;28;20414;-65
2022/09/09 01:06:14;;;;;;;11.90;2.65;;;15.90;99.90;;;;;;5046315;28;20061;-68
2022/09/09 01:08:53;;;;;;;10.23;2.72;;;15.90;99.90;;;;;;5047576;28;20055;-65
2022/09/09 01:11:21;;;;;;;12.90;2.83;;;15.90;99.90;;;;;;5047608;28;20139;-66
2022/09/09 01:13:52;;;;;;;12.10;3.95;;;15.90;99.90;;;;;;5045962;28;20049;-65
2022/09/09 01:16:19;;;;;;;12.43;3.30;;;15.90;99.90;;;;;;5030127;28;20048;-65
2022/09/09 01:18:48;;;;;;;14.55;3.67;;;15.90;99.90;;;;;;5049874;28;20073;-66
2022/09/09 01:21:56;;;;;;;14.35;3.22;;;15.90;99.90;;;;;;5049850;28;20504;-66
2022/09/09 01:24:39;;;;;;;20.90;3.50;;;16.00;99.90;;;;;;5008948;28;20049;-65
2022/09/09 01:27:06;;;;;;;10.93;3.22;;;16.00;99.90;;;;;;5029380;28;20044;-66
2022/09/09 01:29:33;;;;;;;16.92;4.75;;;16.00;99.90;;;;;;5047006;28;20045;-66
2022/09/09 01:32:01;;;;;;;16.40;3.20;;;16.00;99.90;;;;;;5047803;28;20060;-65
2022/09/09 01:34:33;;;;;;;9.80;3.13;;;15.90;99.90;;;;;;5047807;28;20128;-67
2022/09/09 01:37:04;;;;;;;13.48;2.33;;;16.00;99.90;;;;;;5046465;28;20053;-66
2022/09/09 01:39:32;;;;;;;12.52;3.40;;;15.90;99.90;;;;;;5047645;28;20045;-66
2022/09/09 01:41:59;;;;;;;13.00;2.63;;;15.90;99.90;;;;;;5046271;28;20045;-67
2022/09/09 01:44:26;;;;;;;14.18;2.55;;;16.00;99.90;;;;;;5045996;28;20056;-65
2022/09/09 01:46:52;;;;;;;12.98;3.45;;;16.00;99.90;;;;;;5047945;28;20052;-66
2022/09/09 01:49:19;;;;;;;13.52;2.88;;;16.00;99.90;;;;;;5047172;28;20045;-66
2022/09/09 01:51:49;;;;;;;9.30;2.42;;;15.90;99.90;;;;;;5047503;28;20051;-66
2022/09/09 01:54:16;;;;;;;12.25;2.70;;;15.90;99.90;;;;;;5046026;28;20049;-66
2022/09/09 01:57:04;;;;;;;18.65;3.60;;;15.80;99.90;;;;;;5046355;28;20128;-66
2022/09/09 01:59:53;;;;;;;9.95;2.20;;;15.80;99.90;;;;;;5046732;28;20052;-65
2022/09/09 02:02:26;;;;;;;9.95;2.20;;;15.80;99.90;;;;;;5046163;28;20049;-65
2022/09/09 02:05:25;;;;;;;11.27;2.35;;;15.80;99.90;;;;;;5045709;28;20560;-65
2022/09/09 02:08:07;;;;;;;9.02;2.13;;;15.80;99.90;;;;;;5046908;28;20077;-65
2022/09/09 02:10:36;;;;;;;6.90;2.25;;;15.80;99.90;;;;;;5044542;28;20041;-65
2022/09/09 02:13:23;;;;;;;12.95;2.70;;;15.70;99.90;;;;;;5047019;28;20492;-65
2022/09/09 02:16:03;;;;;;;9.50;1.92;;;15.80;99.90;;;;;;5048971;28;20045;-65
2022/09/09 02:18:44;;;;;;;22.88;2.85;;;15.80;99.90;;;;;;5033447;28;20051;-64
2022/09/09 02:21:11;;;;;;;13.55;2.97;;;15.80;99.90;;;;;;5050061;28;20040;-65
2022/09/09 02:23:39;;;;;;;11.00;2.10;;;15.70;99.90;;;;;;5032877;28;20080;-66
2022/09/09 02:26:07;;;;;;;11.15;2.17;;;15.60;99.90;;;;;;5049429;28;20067;-66
2022/09/09 02:28:34;;;;;;;7.03;1.77;;;15.60;99.90;;;;;;5049159;28;20067;-66
2022/09/09 02:31:01;;;;;;;8.73;1.80;;;15.60;99.90;;;;;;5049815;28;20079;-66
2022/09/09 02:33:35;;;;;;;9.20;1.85;;;15.50;99.90;;;;;;5050839;28;20045;-66
2022/09/09 02:36:03;;;;;;;7.53;2.25;;;15.50;99.90;;;;;;5033658;28;20041;-66
2022/09/09 02:38:32;;;;;;;9.60;1.95;;;15.40;99.90;;;;;;5049258;28;20059;-66
2022/09/09 02:40:59;;;;;;;12.00;2.33;;;15.40;99.90;;;;;;5048944;28;20500;-66
2022/09/09 02:43:25;;;;;;;15.10;2.65;;;15.40;99.90;;;;;;5048734;28;20515;-66
2022/09/09 02:46:14;;;;;;;10.18;3.45;;;15.40;99.90;;;;;;5054775;28;20053;-66
2022/09/09 02:49:03;;;;;;;14.20;2.88;;;15.40;99.90;;;;;;5031159;28;20049;-66
2022/09/09 02:51:38;;;;;;;14.00;2.47;;;15.40;99.90;;;;;;5048535;28;20057;-65
2022/09/09 02:54:32;;;;;;;13.18;2.80;;;15.40;99.90;;;;;;5063866;28;20048;-66
2022/09/09 02:57:15;;;;;;;15.52;2.55;;;15.40;99.90;;;;;;5046611;28;20049;-66
2022/09/09 02:59:43;;;;;;;18.08;4.05;;;15.40;99.90;;;;;;5050370;28;20040;-66
2022/09/09 03:02:11;;;;;;;15.05;3.17;;;15.40;99.90;;;;;;5048700;28;20492;-66
2022/09/09 03:04:38;;;;;;;13.23;2.70;;;15.40;99.90;;;;;;5049883;28;20295;-66
2022/09/09 03:07:05;;;;;;;18.50;4.10;;;15.40;99.90;;;;;;5050265;28;20045;-67
2022/09/09 03:09:32;;;;;;;11.02;3.00;;;15.30;99.90;;;;;;5050106;28;20056;-66
2022/09/09 03:12:00;;;;;;;9.68;2.85;;;15.30;99.90;;;;;;5049717;28;20515;-67
2022/09/09 03:14:27;;;;;;;15.50;2.60;;;15.30;99.90;;;;;;5049750;28;20045;-66
2022/09/09 03:19:39;;;;;;;18.20;3.10;;;15.30;99.90;;;;;;5030420;22;20221;-58
2022/09/09 03:22:06;;;;;;;11.32;3.08;;;15.30;99.90;;;;;;5049145;28;20033;-58
2022/09/09 03:24:33;;;;;;;11.35;3.00;;;15.30;99.90;;;;;;5046008;28;20018;-58
2022/09/09 03:26:59;;;;;;;12.18;3.05;;;15.30;99.90;;;;;;5037081;28;20099;-58
2022/09/09 03:29:26;;;;;;;9.23;2.80;;;15.30;99.90;;;;;;5038185;28;20377;-58
2022/09/09 03:31:53;;;;;;;12.77;3.28;;;15.30;99.90;;;;;;5037762;28;20237;-59
2022/09/09 03:34:20;;;;;;;10.73;2.75;;;15.30;99.90;;;;;;5035403;28;20045;-59
2022/09/09 03:36:48;;;;;;;12.85;3.55;;;15.30;99.90;;;;;;5020521;28;20025;-58
2022/09/09 03:39:15;;;;;;;13.38;3.40;;;15.40;99.90;;;;;;5038506;28;20090;-60
2022/09/09 03:41:42;;;;;;;13.80;3.25;;;15.40;99.90;;;;;;5038328;28;20053;-59
2022/09/09 03:44:08;;;;;;;14.45;3.45;;;15.30;99.90;;;;;;5038410;28;20098;-57
2022/09/09 03:46:35;;;;;;;18.10;3.83;;;15.40;99.90;;;;;;5038264;28;20657;-59
2022/09/09 03:49:02;;;;;;;11.93;3.30;;;15.40;99.90;;;;;;5046454;28;20105;-59
2022/09/09 03:51:29;;;;;;;12.18;2.90;;;15.40;99.90;;;;;;5055946;28;20116;-59
2022/09/09 03:53:56;;;;;;;17.17;3.08;;;15.40;99.90;;;;;;5038336;28;20041;-58
2022/09/09 03:56:23;;;;;;;15.50;3.17;;;15.40;99.90;;;;;;5038147;28;20065;-59
2022/09/09 03:58:50;;;;;;;9.52;2.78;;;15.40;99.90;;;;;;5037935;28;20033;-59
2022/09/09 04:01:17;;;;;;;15.05;3.78;;;15.40;99.90;;;;;;5038192;28;20034;-60
2022/09/09 04:03:45;;;;;;;14.73;3.30;;;15.50;99.90;;;;;;5035851;28;20026;-59
2022/09/09 04:06:13;;;;;;;13.18;5.75;;;15.40;99.90;;;;;;5037852;28;20098;-58
2022/09/09 04:08:40;;;;;;;13.50;3.70;;;15.40;99.90;;;;;;5037740;28;20057;-57
2022/09/09 04:11:06;;;;;;;11.23;2.72;;;15.40;99.90;;;;;;5037961;28;20057;-59
2022/09/09 04:13:34;;;;;;;11.38;2.53;;;15.40;99.90;;;;;;5037905;28;20056;-60
2022/09/09 04:16:01;;;;;;;12.70;3.10;;;15.40;99.90;;;;;;5037838;28;20089;-59
2022/09/09 04:18:28;;;;;;;11.73;3.05;;;15.40;99.90;;;;;;5037568;28;20054;-59
2022/09/09 04:20:58;;;;;;;16.38;2.90;;;15.40;99.90;;;;;;5037735;28;20049;-59
2022/09/09 04:23:25;;;;;;;12.32;2.97;;;15.40;99.90;;;;;;5037791;28;20168;-61
2022/09/09 04:25:53;;;;;;;15.75;3.28;;;15.40;99.90;;;;;;5037810;28;20073;-57
2022/09/09 04:28:22;;;;;;;8.60;3.30;;;15.40;99.90;;;;;;5037616;28;20046;-58
2022/09/09 04:30:48;;;;;;;13.73;3.58;;;15.40;99.90;;;;;;5037729;28;20066;-58
2022/09/09 04:33:17;;;;;;;16.33;3.85;;;15.40;99.90;;;;;;5036492;28;20065;-57
2022/09/09 04:35:47;;;;;;;14.60;3.92;;;15.40;99.90;;;;;;5036274;28;20106;-58
2022/09/09 04:38:14;;;;;;;13.55;3.65;;;15.40;99.90;;;;;;5020957;28;20101;-58
2022/09/09 04:40:46;;;;;;;12.35;4.20;;;15.40;99.90;;;;;;5037323;28;20057;-59
2022/09/09 04:43:14;;;;;;;11.35;3.90;;;15.40;99.90;;;;;;5020637;28;20053;-59
2022/09/09 04:45:41;;;;;;;16.00;4.15;;;15.40;99.90;;;;;;5036660;28;20222;-58
2022/09/09 04:48:09;;;;;;;11.70;4.53;;;15.40;99.90;;;;;;5037114;28;20042;-59
2022/09/09 04:50:36;;;;;;;6.60;3.55;;;15.30;99.90;;;;;;5035980;28;20061;-58
2022/09/09 04:53:04;;;;;;;13.95;3.45;;;15.40;99.90;;;;;;5037023;28;20093;-57
2022/09/09 04:55:31;;;;;;;13.13;3.78;;;15.40;99.90;;;;;;5037065;28;20080;-60
2022/09/09 04:58:02;;;;;;;10.57;4.03;;;15.30;99.90;;;;;;5037505;28;20105;-58
2022/09/09 05:00:29;;;;;;;13.00;3.17;;;15.30;99.90;;;;;;5020397;28;20105;-57
2022/09/09 05:02:55;;;;;;;16.58;4.95;;;15.30;99.90;;;;;;5037237;28;20165;-59
2022/09/09 05:05:23;;;;;;;7.43;3.63;;;15.30;99.90;;;;;;5036915;28;20106;-58
2022/09/09 05:07:51;;;;;;;8.57;2.97;;;15.30;99.90;;;;;;5036877;28;20048;-59
2022/09/09 05:10:17;;;;;;;11.15;4.00;;;15.30;99.90;;;;;;5036918;28;20090;-58
2022/09/09 05:12:53;;;;;;;16.17;3.97;;;15.30;99.90;;;;;;5037016;28;20029;-58
2022/09/09 05:15:20;;;;;;;13.52;4.05;;;15.30;99.90;;;;;;5036284;28;20089;-59
2022/09/09 05:17:47;;;;;;;10.52;4.07;;;15.30;99.90;;;;;;5036843;28;20907;-59
2022/09/09 05:20:14;;;;;;;10.43;3.38;;;15.40;99.90;;;;;;5036275;28;20054;-58
2022/09/09 05:22:43;;;;;;;10.50;3.85;;;15.40;99.90;;;;;;5036490;28;20060;-58
2022/09/09 05:25:10;;;;;;;12.25;3.50;;;15.30;99.90;;;;;;5036618;28;20089;-59
2022/09/09 05:27:37;;;;;;;10.00;3.72;;;15.30;99.90;;;;;;5036906;28;20089;-59
2022/09/09 05:30:04;;;;;;;13.55;5.32;;;15.30;99.90;;;;;;5036647;28;20033;-57
2022/09/09 05:32:34;;;;;;;12.85;4.75;;;15.30;99.90;;;;;;5036684;28;20050;-59
2022/09/09 05:35:01;;;;;;;16.70;5.40;;;15.30;99.90;;;;;;5036317;28;20050;-58
2022/09/09 05:37:29;;;;;;;16.40;5.75;;;15.30;99.90;;;;;;5036490;28;20038;-59
2022/09/09 05:39:56;;;;;;;13.88;5.53;;;15.30;99.90;;;;;;5036693;28;20054;-60
2022/09/09 05:42:23;;;;;;;15.07;4.90;;;15.30;99.90;;;;;;5036426;28;20102;-59
2022/09/09 05:44:50;;;;;;;21.05;6.00;;;15.40;99.90;;;;;;5019712;28;20062;-59
2022/09/09 05:47:17;;;;;;;19.33;5.88;;;15.40;99.90;;;;;;5035943;28;20129;-59
2022/09/09 05:49:44;;;;;;;17.40;5.63;;;15.30;99.90;;;;;;5038125;28;20049;-58
2022/09/09 05:52:11;;;;;;;14.55;5.65;;;15.30;99.90;;;;;;5040246;28;20044;-62
2022/09/09 05:54:37;;;;;;;21.73;5.22;;;15.30;99.90;;;;;;4691464;28;9999919;-59
2022/09/09 05:57:05;;;;;;;11.32;4.82;;;15.30;99.90;;;;;;5037797;28;20058;-59
2022/09/09 05:59:32;;;;;;;11.40;5.40;;;15.30;99.90;;;;;;5020935;28;20093;-59
2022/09/09 06:01:59;;;;;;;13.85;5.47;;;15.40;99.90;;;;;;5025599;28;20065;-58
2022/09/09 06:04:26;;;;;;;20.35;6.25;;;15.40;99.90;;;;;;5020357;28;20108;-59
2022/09/09 06:06:53;;;;;;;11.20;5.50;;;15.40;99.90;;;;;;5036805;28;20102;-59
2022/09/09 06:09:20;;;;;;;20.08;6.10;;;15.40;99.90;;;;;;5021851;28;20088;-59
2022/09/09 06:11:46;;;;;;;16.58;6.35;;;15.40;99.90;;;;;;5040264;28;20105;-58
2022/09/09 06:14:13;;;;;;;14.95;5.28;;;15.40;99.90;;;;;;5003439;28;20089;-59
2022/09/09 06:16:42;;;;;;;17.75;6.10;;;15.40;99.90;;;;;;5052840;28;20097;-59
2022/09/09 06:19:10;;;;;;;15.50;5.85;;;15.40;99.90;;;;;;5028565;28;20046;-59
2022/09/09 06:21:37;;;;;;;14.73;5.47;;;15.40;99.90;;;;;;5021208;28;20121;-59
2022/09/09 06:24:04;;;;;;;15.50;5.55;;;15.40;99.90;;;;;;5020735;28;20036;-60
2022/09/09 06:26:35;;;;;;;14.32;6.60;;;15.50;99.90;;;;;;5021398;28;20030;-60
2022/09/09 06:29:03;;;;;;;12.85;5.18;;;15.50;99.90;;;;;;5034963;28;20065;-60
2022/09/09 06:31:33;;;;;;;12.82;4.97;;;15.40;99.90;;;;;;5039078;28;20049;-59
2022/09/09 06:34:01;;;;;;;11.70;6.10;;;15.50;99.90;;;;;;5005772;28;20030;-58
2022/09/09 06:36:29;;;;;;;17.17;7.07;;;15.50;99.90;;;;;;5020862;28;20110;-58
2022/09/09 06:38:56;;;;;;;15.35;6.85;;;15.50;99.90;;;;;;5036548;28;20101;-59
2022/09/09 06:41:26;;;;;;;14.38;6.03;;;15.50;99.90;;;;;;5038437;28;20064;-59
2022/09/09 06:43:52;;;;;;;14.30;5.00;;;15.40;99.90;;;;;;5021579;28;20054;-58
2022/09/09 06:46:21;;;;;;;10.73;5.22;;;15.50;99.90;;;;;;5019041;28;20074;-58
2022/09/09 06:48:48;;;;;;;11.70;4.22;;;15.40;99.90;;;;;;5032986;28;20034;-58
2022/09/09 06:51:17;;;;;;;13.82;5.75;;;15.40;99.90;;;;;;4985488;28;20098;-59
2022/09/09 06:53:45;;;;;;;12.50;5.30;;;15.40;99.90;;;;;;5029289;28;20060;-58
2022/09/09 06:56:23;;;;;;;8.90;4.75;;;15.40;99.90;;;;;;5019775;28;20102;-59
2022/09/09 06:58:51;;;;;;;12.18;4.50;;;15.40;99.90;;;;;;5020246;28;20097;-59
2022/09/09 07:01:20;;;;;;;14.98;4.72;;;15.50;99.90;;;;;;5035588;28;20034;-59
2022/09/09 07:03:49;;;;;;;15.38;5.40;;;15.40;99.90;;;;;;5034096;28;20029;-58
2022/09/09 07:06:18;;;;;;;10.80;4.50;;;15.50;99.90;;;;;;5037451;28;20041;-59
2022/09/09 07:08:52;;;;;;;9.18;4.68;;;15.50;99.90;;;;;;5038210;28;20041;-60
2022/09/09 07:11:23;;;;;;;12.93;4.55;;;15.50;99.90;;;;;;5006076;28;20033;-59
2022/09/09 07:13:50;;;;;;;12.75;4.57;;;15.60;99.90;;;;;;5019335;28;20085;-59
2022/09/09 07:16:18;;;;;;;6.28;3.72;;;15.60;99.90;;;;;;5038168;28;21235;-59
2022/09/09 07:18:45;;;;;;;15.77;4.55;;;15.50;99.90;;;;;;5038043;28;20102;-59
2022/09/09 07:21:13;;;;;;;12.43;4.57;;;15.60;99.90;;;;;;5053303;28;20101;-58
2022/09/09 07:23:40;;;;;;;11.85;4.32;;;15.60;99.90;;;;;;5037853;28;20065;-59
2022/09/09 07:26:12;;;;;;;10.75;4.53;;;15.60;99.90;;;;;;5037876;28;20085;-59
2022/09/09 07:28:39;;;;;;;9.60;4.35;;;15.60;99.90;;;;;;5020984;28;20081;-60
2022/09/09 07:31:06;;;;;;;9.90;4.90;;;15.70;99.90;;;;;;5033218;28;20056;-59
2022/09/09 07:33:33;;;;;;;13.25;4.97;;;15.70;99.90;;;;;;5037304;28;20034;-59
2022/09/09 07:36:23;;;;;;;13.10;4.65;;;15.80;99.90;;;;;;5036144;28;20162;-58
2022/09/09 07:38:55;;;;;;;9.05;3.88;;;15.80;99.90;;;;;;5021598;28;20041;-60
2022/09/09 07:41:26;;;;;;;9.55;4.45;;;15.80;99.90;;;;;;5036178;28;20064;-58
2022/09/09 07:43:53;;;;;;;12.50;4.35;;;15.90;99.90;;;;;;5037517;28;20093;-59
2022/09/09 07:46:22;;;;;;;10.52;4.70;;;15.90;99.90;;;;;;5036607;28;20026;-58
2022/09/09 07:48:55;;;;;;;10.70;4.43;;;15.90;99.90;;;;;;5036991;28;20065;-59
2022/09/09 07:51:27;;;;;;;9.70;4.30;;;15.80;99.90;;;;;;5020605;28;20098;-61
2022/09/09 07:53:57;;;;;;;9.05;4.38;;;15.80;99.90;;;;;;5037810;28;20094;-60
2022/09/09 07:56:24;;;;;;;11.63;4.57;;;15.80;99.90;;;;;;5037099;28;20064;-61
2022/09/09 07:58:52;;;;;;;12.82;4.93;;;15.80;99.90;;;;;;5056484;28;20034;-60
2022/09/09 08:01:29;;;;;;;16.77;4.97;;;15.80;99.90;;;;;;5009381;28;20069;-61
2022/09/09 08:04:07;;;;;;;13.63;4.20;;;15.80;99.90;;;;;;4986245;28;20054;-61
2022/09/09 08:06:39;;;;;;;10.07;4.13;;;15.80;99.90;;;;;;5016759;28;20064;-61
2022/09/09 08:09:06;;;;;;;9.18;4.45;;;15.80;99.90;;;;;;4998625;28;20046;-61
2022/09/09 08:11:33;;;;;;;10.38;3.63;;;15.90;99.90;;;;;;4682076;28;9999875;-61
2022/09/09 08:14:05;;;;;;;10.88;4.07;;;15.90;99.90;;;;;;5037336;28;20041;-60
2022/09/09 08:16:33;;;;;;;8.05;3.53;;;15.90;99.90;;;;;;5037497;28;20057;-60
2022/09/09 08:19:00;;;;;;;11.40;4.53;;;16.00;99.90;;;;;;5037435;28;20065;-60
2022/09/09 08:21:28;;;;;;;9.85;3.88;;;16.10;99.90;;;;;;5037145;28;20080;-60
2022/09/09 08:23:56;;;;;;;14.13;3.80;;;16.20;99.90;;;;;;5037569;28;20042;-60
2022/09/09 08:26:31;;;;;;;7.18;3.85;;;16.20;99.90;;;;;;5037216;28;20026;-58
2022/09/09 08:28:58;;;;;;;6.07;3.10;;;16.20;99.90;;;;;;5037194;28;20026;-59
2022/09/09 08:31:30;;;;;;;10.70;4.15;;;16.30;99.90;;;;;;5037156;28;20030;-59
2022/09/09 08:33:59;;;;;;;12.48;3.72;;;16.40;99.90;;;;;;5036726;28;20034;-59
2022/09/09 08:36:27;;;;;;;13.30;4.18;;;16.40;99.90;;;;;;5036498;28;20072;-59
2022/09/09 08:38:55;;;;;;;6.80;3.83;;;16.50;99.90;;;;;;5037117;28;20093;-59
2022/09/09 08:41:21;;;;;;;11.10;3.65;;;16.60;99.90;;;;;;5036688;28;20088;-58
2022/09/09 08:43:48;;;;;;;11.27;4.40;;;16.70;99.90;;;;;;5037142;28;20097;-60
2022/09/09 08:46:39;;;;;;;10.95;4.40;;;16.70;99.90;;;;;;5020110;28;20045;-59
2022/09/09 08:49:19;;;;;;;12.25;4.95;;;16.80;99.90;;;;;;5010536;28;20057;-59
2022/09/09 08:51:46;;;;;;;13.65;3.80;;;16.90;99.90;;;;;;5036218;28;20034;-60
2022/09/09 08:54:13;;;;;;;7.65;3.83;;;17.00;99.90;;;;;;5036155;28;20070;-60
2022/09/09 08:56:42;;;;;;;8.50;4.22;;;17.00;99.90;;;;;;5020496;28;20030;-60
2022/09/09 08:59:09;;;;;;;13.77;4.43;;;16.90;99.90;;;;;;5036797;28;20102;-60
2022/09/09 09:02:04;;;;;;;7.47;4.72;;;16.90;99.90;;;;;;5036389;28;20109;-61
2022/09/09 09:04:46;;;;;;;10.27;4.53;;;16.90;99.90;;;;;;5035835;28;20040;-60
2022/09/09 09:07:35;;;;;;;11.38;5.65;;;16.80;99.90;;;;;;5036254;28;20026;-60
2022/09/09 09:10:39;;;;;;;8.30;4.95;;;16.80;99.90;;;;;;5027682;28;20094;-59
2022/09/09 09:13:26;;;;;;;7.00;4.38;;;16.60;99.90;;;;;;5036389;28;20036;-60
2022/09/09 09:15:56;;;;;;;12.73;5.18;;;16.60;99.90;;;;;;5036850;28;20094;-60
2022/09/09 09:18:23;;;;;;;9.13;4.68;;;16.60;99.90;;;;;;5019359;28;20098;-60
2022/09/09 09:21:18;;;;;;;14.00;5.20;;;16.60;99.90;;;;;;5036539;28;20058;-60
2022/09/09 09:23:56;;;;;;;8.25;5.03;;;16.60;99.90;;;;;;5035668;28;20037;-59
2022/09/09 09:26:26;;;;;;;7.05;4.72;;;16.70;99.90;;;;;;5020481;28;20037;-58
2022/09/09 09:28:54;;;;;;;9.95;5.28;;;16.70;99.90;;;;;;5035724;28;20090;-58
2022/09/09 09:31:21;;;;;;;6.45;4.95;;;16.80;99.90;;;;;;5036226;28;20064;-60
2022/09/09 09:33:54;;;;;;;19.02;6.13;;;16.80;99.90;;;;;;5035541;28;20068;-59
2022/09/09 09:36:35;;;;;;;9.67;5.47;;;16.80;99.90;;;;;;5036449;28;20042;-59
2022/09/09 09:39:04;;;;;;;11.75;5.88;;;16.70;99.90;;;;;;5036347;28;20053;-59
2022/09/09 09:41:51;;;;;;;9.95;6.05;;;16.80;99.90;;;;;;5035835;28;20120;-60
2022/09/09 09:44:29;;;;;;;8.18;5.10;;;16.90;99.90;;;;;;5035506;28;20098;-60
2022/09/09 09:47:06;;;;;;;11.85;6.72;;;17.10;99.90;;;;;;5035869;28;20392;-60
2022/09/09 09:49:33;;;;;;;12.38;6.28;;;17.20;99.90;;;;;;5035831;28;20401;-60
2022/09/09 09:52:03;;;;;;;12.48;6.68;;;17.20;99.90;;;;;;5036189;28;20106;-58
2022/09/09 09:54:32;;;;;;;9.75;6.32;;;17.30;99.90;;;;;;5015543;28;20049;-61
2022/09/09 09:57:13;;;;;;;17.17;7.38;;;17.40;99.90;;;;;;5030087;28;20053;-58
2022/09/09 09:59:39;;;;;;;14.95;7.45;;;17.40;99.90;;;;;;5019338;28;20340;-57
2022/09/09 10:02:13;;;;;;;14.52;7.70;;;17.40;99.90;;;;;;5019462;28;20057;-59
2022/09/09 10:04:41;;;;;;;15.13;8.82;;;17.30;99.90;;;;;;5035846;28;20054;-58
2022/09/09 10:07:12;;;;;;;16.17;8.55;;;17.30;99.90;;;;;;5035852;28;20038;-59
2022/09/09 10:09:40;;;;;;;17.52;8.77;;;17.40;99.90;;;;;;5035850;28;20074;-59
2022/09/09 10:12:13;;;;;;;12.25;8.27;;;17.50;99.90;;;;;;5035891;28;20034;-59
2022/09/09 10:14:57;;;;;;;14.75;8.38;;;17.50;99.90;;;;;;5035727;28;20068;-58
2022/09/09 10:18:01;;;;;;;13.57;8.32;;;17.50;99.90;;;;;;5036154;28;20038;-58
2022/09/09 10:20:47;;;;;;;17.65;8.77;;;17.60;99.90;;;;;;5004823;28;20038;-59
2022/09/09 10:23:35;;;;;;;20.17;8.88;;;17.60;99.90;;;;;;5036046;28;20118;-58
2022/09/09 10:26:06;;;;;;;19.15;10.27;;;17.60;99.90;;;;;;5035998;28;20097;-59
2022/09/09 10:28:33;;;;;;;12.10;8.70;;;17.60;99.90;;;;;;5034521;28;20041;-58
2022/09/09 10:31:17;;;;;;;23.75;10.18;;;17.60;99.90;;;;;;5035611;28;20057;-59
2022/09/09 10:33:47;;;;;;;19.48;9.18;;;17.60;99.90;;;;;;5035648;28;20089;-60
2022/09/09 10:36:20;;;;;;;16.73;9.77;;;17.60;99.90;;;;;;5037324;28;20065;-58
2022/09/09 10:38:59;;;;;;;16.85;8.52;;;17.60;99.90;;;;;;5023070;28;20044;-58
2022/09/09 10:41:45;;;;;;;22.95;9.13;;;17.60;99.90;;;;;;5018960;28;20061;-59
2022/09/09 10:44:24;;;;;;;17.33;8.82;;;17.50;99.90;;;;;;5038303;28;20093;-59
2022/09/09 10:47:09;;;;;;;16.45;8.80;;;17.60;99.90;;;;;;5038659;28;20037;-60
2022/09/09 10:49:58;;;;;;;12.27;8.50;;;17.60;99.90;;;;;;5018777;28;20073;-59
2022/09/09 10:52:34;;;;;;;16.27;7.88;;;17.80;99.90;;;;;;5037729;28;20061;-61
2022/09/09 10:55:12;;;;;;;12.75;7.38;;;17.80;99.90;;;;;;5039183;28;20034;-59
2022/09/09 10:57:42;;;;;;;17.17;8.82;;;17.90;99.90;;;;;;5022073;28;20090;-59
2022/09/09 11:00:23;;;;;;;13.23;7.07;;;18.00;99.90;;;;;;5038558;28;20038;-59
2022/09/09 11:02:56;;;;;;;13.68;6.78;;;17.90;99.90;;;;;;5022044;28;20041;-59
2022/09/09 11:05:29;;;;;;;26.95;11.48;;;17.80;99.90;;;;;;5038420;28;20041;-59
2022/09/09 11:08:16;;;;;;;14.50;8.95;;;17.60;99.90;;;;;;5038678;28;20036;-59
2022/09/09 11:11:01;;;;;;;16.67;8.63;;;17.30;99.90;;;;;;5022311;28;20042;-60
2022/09/09 11:13:51;;;;;;;13.77;8.43;;;17.10;99.90;;;;;;5038141;28;20089;-59
2022/09/09 11:16:30;;;;;;;15.27;8.82;;;16.90;99.90;;;;;;5031372;28;20037;-60
2022/09/09 11:19:21;;;;;;;18.77;8.77;;;16.80;99.90;;;;;;5038592;28;20048;-60
2022/09/09 11:21:49;;;;;;;17.30;9.35;;;16.90;99.90;;;;;;5037605;28;20053;-60
2022/09/09 11:24:40;;;;;;;16.15;7.88;;;17.00;99.90;;;;;;5029851;28;20050;-60
2022/09/09 11:27:16;;;;;;;12.50;6.43;;;17.00;99.90;;;;;;5033449;28;20021;-59
2022/09/09 11:30:04;;;;;;;11.70;7.05;;;16.90;99.90;;;;;;5018268;28;20094;-59
2022/09/09 11:33:05;;;;;;;13.15;6.70;;;16.80;99.90;;;;;;5026771;28;20045;-59
2022/09/09 11:35:51;;;;;;;6.13;4.43;;;17.00;99.90;;;;;;4997714;28;20073;-59
2022/09/09 11:38:38;;;;;;;6.32;4.00;;;17.20;99.90;;;;;;5031561;28;20033;-60
2022/09/09 11:41:07;;;;;;;7.72;3.70;;;17.30;99.90;;;;;;5038499;28;20233;-60
2022/09/09 11:43:41;;;;;;;6.25;3.78;;;17.20;99.90;;;;;;5016257;28;20038;-59
2022/09/09 11:46:08;;;;;;;9.50;4.65;;;17.20;99.90;;;;;;5035818;28;20085;-59
2022/09/09 11:48:48;;;;;;;10.77;4.00;;;17.30;99.90;;;;;;5036654;28;20054;-59
2022/09/09 11:51:20;;;;;;;7.00;4.07;;;17.30;99.90;;;;;;5037943;28;20065;-59
2022/09/09 11:53:53;;;;;;;7.13;4.55;;;17.40;99.90;;;;;;5037779;28;20072;-59
2022/09/09 11:56:30;;;;;;;11.82;6.07;;;17.40;99.90;;;;;;5037925;28;20042;-61
2022/09/09 11:59:01;;;;;;;6.85;4.28;;;17.40;99.90;;;;;;5031051;28;20022;-60
2022/09/09 12:01:33;;;;;;;4.75;3.55;;;17.40;99.90;;;;;;5037363;28;20050;-59
2022/09/09 12:04:06;;;;;;;7.28;3.47;;;17.40;99.90;;;;;;5037675;28;20052;-60
2022/09/09 12:06:33;;;;;;;9.10;4.88;;;17.40;99.90;;;;;;5037612;28;20045;-60
2022/09/09 12:09:28;;;;;;;5.75;3.33;;;17.30;99.90;;;;;;5037178;28;20026;-60
2022/09/09 12:12:18;;;;;;;12.82;5.70;;;17.40;99.90;;;;;;5037086;28;20025;-60
2022/09/09 12:14:56;;;;;;;7.25;2.88;;;17.50;99.90;;;;;;5036541;28;20030;-59
2022/09/09 12:17:25;;;;;;;5.97;3.45;;;17.50;99.90;;;;;;5033041;28;20062;-57
2022/09/09 12:20:30;;;;;;;6.13;3.33;;;17.50;99.90;;;;;;5037082;28;20106;-60
2022/09/09 12:23:09;;;;;;;7.07;3.08;;;17.80;99.90;;;;;;4998208;28;20101;-58
2022/09/09 12:25:58;;;;;;;5.40;2.55;;;17.80;99.90;;;;;;5036413;28;20049;-59
2022/09/09 12:28:52;;;;;;;6.80;2.47;;;18.00;99.90;;;;;;5037075;28;20053;-62
2022/09/09 12:31:24;;;;;;;5.50;3.10;;;18.10;99.90;;;;;;5051583;28;20038;-59
2022/09/09 12:33:52;;;;;;;5.55;2.55;;;18.30;99.90;;;;;;5036734;28;20040;-60
2022/09/09 12:36:21;;;;;;;6.18;2.80;;;18.50;99.90;;;;;;5037185;28;20037;-59
2022/09/09 12:38:50;;;;;;;14.10;3.92;;;18.60;99.90;;;;;;5020655;28;20033;-60
2022/09/09 12:41:24;;;;;;;6.72;3.50;;;18.80;99.90;;;;;;5035699;28;20057;-59
2022/09/09 12:43:51;;;;;;;6.07;3.33;;;18.70;99.90;;;;;;5036739;28;20113;-58
2022/09/09 12:46:32;;;;;;;7.28;2.83;;;18.80;99.90;;;;;;5036185;28;20089;-60
2022/09/09 12:48:58;;;;;;;6.40;2.95;;;18.80;99.90;;;;;;5021178;28;20044;-60
2022/09/09 12:51:27;;;;;;;11.00;3.00;;;18.90;99.90;;;;;;5035516;28;20057;-60
2022/09/09 12:53:54;;;;;;;6.85;3.03;;;18.80;99.90;;;;;;5036764;28;20037;-58
2022/09/09 12:56:26;;;;;;;4.85;3.22;;;18.90;99.90;;;;;;5036112;28;20042;-59
2022/09/09 12:58:54;;;;;;;5.75;2.80;;;19.10;99.90;;;;;;5035906;28;20061;-59
2022/09/09 13:01:29;;;;;;;5.35;3.10;;;19.20;99.90;;;;;;5036593;28;20041;-60
2022/09/09 13:03:56;;;;;;;8.25;2.88;;;19.20;99.90;;;;;;5025497;28;20093;-60
2022/09/09 13:06:30;;;;;;;15.65;3.08;;;19.20;99.90;;;;;;5035822;28;20069;-59
2022/09/09 13:08:58;;;;;;;4.97;2.70;;;19.40;99.90;;;;;;5036742;28;20052;-59
2022/09/09 13:11:48;;;;;;;5.80;3.05;;;19.40;99.90;;;;;;5035979;28;20045;-59